sensor_id;sensor_type;location;lat;lon;timestamp;temperature;humidity
15115;DHT22;7658;51.456;7.622;2023-07-16T00:00:56;19.20;99.90
15115;DHT22;7658;51.456;7.622;2023-07-16T00:03:22;19.20;99.90
15115;DHT22;7658;51.456;7.622;2023-07-16T00:05:55;19.20;99.90
15115;DHT22;7658;51.456;7.622;2023-07-16T00:08:26;19.20;99.90
15115;DHT22;7658;51.456;7.622;2023-07-16T00:11:27;19.30;99.90
15115;DHT22;7658;51.456;7.622;2023-07-16T00:14:09;19.40;99.90
15115;DHT22;7658;51.456;7.622;2023-07-16T00:16:46;19.40;99.90
15115;DHT22;7658;51.456;7.622;2023-07-16T00:19:30;19.50;99.90
15115;DHT22;7658;51.456;7.622;2023-07-16T00:22:04;19.70;99.90
15115;DHT22;7658;51.456;7.622;2023-07-16T00:24:30;19.80;99.90
15115;DHT22;7658;51.456;7.622;2023-07-16T00:26:59;19.90;99.90
15115;DHT22;7658;51.456;7.622;2023-07-16T00:29:28;19.90;99.90
15115;DHT22;7658;51.456;7.622;2023-07-16T00:31:54;20.00;99.90
15115;DHT22;7658;51.456;7.622;2023-07-16T00:34:26;19.90;99.90
15115;DHT22;7658;51.456;7.622;2023-07-16T00:37:05;19.90;99.90
15115;DHT22;7658;51.456;7.622;2023-07-16T00:39:40;19.90;99.90
15115;DHT22;7658;51.456;7.622;2023-07-16T00:42:05;20.00;99.90
15115;DHT22;7658;51.456;7.622;2023-07-16T00:44:31;19.90;99.90
15115;DHT22;7658;51.456;7.622;2023-07-16T00:47:09;19.90;99.90
15115;DHT22;7658;51.456;7.622;2023-07-16T00:49:36;19.90;99.90
15115;DHT22;7658;51.456;7.622;2023-07-16T00:52:02;19.90;99.90
15115;DHT22;7658;51.456;7.622;2023-07-16T00:54:34;19.80;99.90
15115;DHT22;7658;51.456;7.622;2023-07-16T00:57:00;19.80;99.90
15115;DHT22;7658;51.456;7.622;2023-07-16T00:59:26;19.80;99.90
15115;DHT22;7658;51.456;7.622;2023-07-16T01:01:55;19.70;99.90
15115;DHT22;7658;51.456;7.622;2023-07-16T01:04:23;19.70;99.90
15115;DHT22;7658;51.456;7.622;2023-07-16T01:07:04;19.60;99.90
15115;DHT22;7658;51.456;7.622;2023-07-16T01:09:32;19.60;99.90
15115;DHT22;7658;51.456;7.622;2023-07-16T01:12:02;19.60;99.90
15115;DHT22;7658;51.456;7.622;2023-07-16T01:14:38;19.50;99.90
15115;DHT22;7658;51.456;7.622;2023-07-16T01:17:10;19.50;99.90
15115;DHT22;7658;51.456;7.622;2023-07-16T01:19:45;19.50;99.90
15115;DHT22;7658;51.456;7.622;2023-07-16T01:30:47;19.40;99.90
15115;DHT22;7658;51.456;7.622;2023-07-16T01:33:36;19.30;99.90
15115;DHT22;7658;51.456;7.622;2023-07-16T01:36:24;19.30;99.90
15115;DHT22;7658;51.456;7.622;2023-07-16T01:38:57;19.30;99.90
15115;DHT22;7658;51.456;7.622;2023-07-16T01:41:23;19.20;99.90
15115;DHT22;7658;51.456;7.622;2023-07-16T01:43:52;19.10;99.90
15115;DHT22;7658;51.456;7.622;2023-07-16T01:46:18;19.10;99.90
15115;DHT22;7658;51.456;7.622;2023-07-16T01:48:47;19.00;99.90
15115;DHT22;7658;51.456;7.622;2023-07-16T01:51:13;19.00;99.90
15115;DHT22;7658;51.456;7.622;2023-07-16T01:53:40;18.80;99.90
15115;DHT22;7658;51.456;7.622;2023-07-16T01:56:06;18.80;99.90
15115;DHT22;7658;51.456;7.622;2023-07-16T01:58:32;18.80;99.90
15115;DHT22;7658;51.456;7.622;2023-07-16T02:00:58;18.70;99.90
15115;DHT22;7658;51.456;7.622;2023-07-16T02:03:24;18.70;99.90
15115;DHT22;7658;51.456;7.622;2023-07-16T02:05:50;18.60;99.90
15115;DHT22;7658;51.456;7.622;2023-07-16T02:08:17;18.60;99.90
15115;DHT22;7658;51.456;7.622;2023-07-16T02:10:43;18.60;99.90
15115;DHT22;7658;51.456;7.622;2023-07-16T02:13:09;18.60;99.90
15115;DHT22;7658;51.456;7.622;2023-07-16T02:15:35;18.60;99.90
15115;DHT22;7658;51.456;7.622;2023-07-16T02:18:01;18.60;99.90
15115;DHT22;7658;51.456;7.622;2023-07-16T02:20:26;18.60;99.90
15115;DHT22;7658;51.456;7.622;2023-07-16T02:22:52;18.50;99.90
15115;DHT22;7658;51.456;7.622;2023-07-16T02:25:18;18.50;99.90
15115;DHT22;7658;51.456;7.622;2023-07-16T02:27:44;18.50;99.90
15115;DHT22;7658;51.456;7.622;2023-07-16T02:30:10;18.40;99.90
15115;DHT22;7658;51.456;7.622;2023-07-16T02:32:36;18.40;99.90
15115;DHT22;7658;51.456;7.622;2023-07-16T02:35:02;18.40;99.90
15115;DHT22;7658;51.456;7.622;2023-07-16T02:37:28;18.40;99.90
15115;DHT22;7658;51.456;7.622;2023-07-16T02:39:54;18.40;99.90
15115;DHT22;7658;51.456;7.622;2023-07-16T02:42:20;18.40;99.90
15115;DHT22;7658;51.456;7.622;2023-07-16T02:44:46;18.40;99.90
15115;DHT22;7658;51.456;7.622;2023-07-16T02:47:11;18.40;99.90
15115;DHT22;7658;51.456;7.622;2023-07-16T02:49:38;18.50;99.90
15115;DHT22;7658;51.456;7.622;2023-07-16T02:52:05;18.50;99.90
15115;DHT22;7658;51.456;7.622;2023-07-16T02:54:30;18.50;99.90
15115;DHT22;7658;51.456;7.622;2023-07-16T02:56:56;18.50;99.90
15115;DHT22;7658;51.456;7.622;2023-07-16T02:59:22;18.50;99.90
15115;DHT22;7658;51.456;7.622;2023-07-16T03:01:48;18.50;99.90
15115;DHT22;7658;51.456;7.622;2023-07-16T03:04:13;18.50;99.90
15115;DHT22;7658;51.456;7.622;2023-07-16T03:06:39;18.50;99.90
15115;DHT22;7658;51.456;7.622;2023-07-16T03:09:05;18.50;99.90
15115;DHT22;7658;51.456;7.622;2023-07-16T03:11:30;18.50;99.90
15115;DHT22;7658;51.456;7.622;2023-07-16T03:13:56;18.50;99.90
15115;DHT22;7658;51.456;7.622;2023-07-16T03:16:22;18.40;99.90
15115;DHT22;7658;51.456;7.622;2023-07-16T03:18:48;18.40;99.90
15115;DHT22;7658;51.456;7.622;2023-07-16T03:21:13;18.40;99.90
15115;DHT22;7658;51.456;7.622;2023-07-16T03:23:39;18.30;99.90
15115;DHT22;7658;51.456;7.622;2023-07-16T03:26:05;18.30;99.90
15115;DHT22;7658;51.456;7.622;2023-07-16T03:28:31;18.30;99.90
15115;DHT22;7658;51.456;7.622;2023-07-16T03:30:56;18.40;99.90
15115;DHT22;7658;51.456;7.622;2023-07-16T03:33:22;18.40;99.90
15115;DHT22;7658;51.456;7.622;2023-07-16T03:35:48;18.40;99.90
15115;DHT22;7658;51.456;7.622;2023-07-16T03:38:15;18.50;99.90
15115;DHT22;7658;51.456;7.622;2023-07-16T03:40:46;18.60;99.90
15115;DHT22;7658;51.456;7.622;2023-07-16T03:43:12;18.60;99.90
15115;DHT22;7658;51.456;7.622;2023-07-16T03:45:38;18.50;99.90
15115;DHT22;7658;51.456;7.622;2023-07-16T03:48:04;18.50;99.90
15115;DHT22;7658;51.456;7.622;2023-07-16T03:50:30;18.40;99.90
15115;DHT22;7658;51.456;7.622;2023-07-16T03:52:56;18.40;99.90
15115;DHT22;7658;51.456;7.622;2023-07-16T03:55:22;18.30;99.90
15115;DHT22;7658;51.456;7.622;2023-07-16T03:57:47;18.30;99.90
15115;DHT22;7658;51.456;7.622;2023-07-16T04:00:13;18.30;99.90
15115;DHT22;7658;51.456;7.622;2023-07-16T04:02:39;18.30;99.90
15115;DHT22;7658;51.456;7.622;2023-07-16T04:05:05;18.30;99.90
15115;DHT22;7658;51.456;7.622;2023-07-16T04:07:31;18.30;99.90
15115;DHT22;7658;51.456;7.622;2023-07-16T04:09:57;18.20;99.90
15115;DHT22;7658;51.456;7.622;2023-07-16T04:12:23;18.20;99.90
15115;DHT22;7658;51.456;7.622;2023-07-16T04:14:48;18.20;99.90
15115;DHT22;7658;51.456;7.622;2023-07-16T04:17:14;18.20;99.90
15115;DHT22;7658;51.456;7.622;2023-07-16T04:19:40;18.10;99.90
15115;DHT22;7658;51.456;7.622;2023-07-16T04:22:06;18.20;99.90
15115;DHT22;7658;51.456;7.622;2023-07-16T04:24:31;18.10;99.90
15115;DHT22;7658;51.456;7.622;2023-07-16T04:27:00;18.10;99.90
15115;DHT22;7658;51.456;7.622;2023-07-16T04:29:26;18.10;99.90
15115;DHT22;7658;51.456;7.622;2023-07-16T04:31:51;18.10;99.90
15115;DHT22;7658;51.456;7.622;2023-07-16T04:34:17;18.10;99.90
15115;DHT22;7658;51.456;7.622;2023-07-16T04:36:43;18.10;99.90
15115;DHT22;7658;51.456;7.622;2023-07-16T04:39:09;18.10;99.90
15115;DHT22;7658;51.456;7.622;2023-07-16T04:41:35;18.10;99.90
15115;DHT22;7658;51.456;7.622;2023-07-16T04:44:01;18.10;99.90
15115;DHT22;7658;51.456;7.622;2023-07-16T04:46:26;18.10;99.90
15115;DHT22;7658;51.456;7.622;2023-07-16T04:48:52;18.10;99.90
15115;DHT22;7658;51.456;7.622;2023-07-16T04:51:19;18.10;99.90
15115;DHT22;7658;51.456;7.622;2023-07-16T04:53:44;18.10;99.90
15115;DHT22;7658;51.456;7.622;2023-07-16T04:56:14;18.10;99.90
15115;DHT22;7658;51.456;7.622;2023-07-16T04:58:40;18.20;99.90
15115;DHT22;7658;51.456;7.622;2023-07-16T05:01:08;18.10;99.90
15115;DHT22;7658;51.456;7.622;2023-07-16T05:03:34;18.20;99.90
15115;DHT22;7658;51.456;7.622;2023-07-16T05:06:00;18.20;99.90
15115;DHT22;7658;51.456;7.622;2023-07-16T05:08:26;18.20;99.90
15115;DHT22;7658;51.456;7.622;2023-07-16T05:10:52;18.20;99.90
15115;DHT22;7658;51.456;7.622;2023-07-16T05:13:18;18.20;99.90
15115;DHT22;7658;51.456;7.622;2023-07-16T05:15:44;18.20;99.90
15115;DHT22;7658;51.456;7.622;2023-07-16T05:18:09;18.20;99.90
15115;DHT22;7658;51.456;7.622;2023-07-16T05:20:35;18.20;99.90
15115;DHT22;7658;51.456;7.622;2023-07-16T05:23:01;18.30;99.90
15115;DHT22;7658;51.456;7.622;2023-07-16T05:25:27;18.30;99.90
15115;DHT22;7658;51.456;7.622;2023-07-16T05:27:53;18.30;99.90
15115;DHT22;7658;51.456;7.622;2023-07-16T05:30:19;18.40;99.90
15115;DHT22;7658;51.456;7.622;2023-07-16T05:32:44;18.50;99.90
15115;DHT22;7658;51.456;7.622;2023-07-16T05:35:10;18.60;99.90
15115;DHT22;7658;51.456;7.622;2023-07-16T05:37:36;18.50;99.90
15115;DHT22;7658;51.456;7.622;2023-07-16T05:40:02;18.50;99.90
15115;DHT22;7658;51.456;7.622;2023-07-16T05:42:28;18.50;99.90
15115;DHT22;7658;51.456;7.622;2023-07-16T05:44:54;18.60;99.90
15115;DHT22;7658;51.456;7.622;2023-07-16T05:47:20;18.60;99.90
15115;DHT22;7658;51.456;7.622;2023-07-16T05:49:46;18.70;99.90
15115;DHT22;7658;51.456;7.622;2023-07-16T05:52:12;18.70;99.90
15115;DHT22;7658;51.456;7.622;2023-07-16T05:54:38;18.70;99.90
15115;DHT22;7658;51.456;7.622;2023-07-16T05:57:04;18.80;99.90
15115;DHT22;7658;51.456;7.622;2023-07-16T05:59:30;18.80;99.90
15115;DHT22;7658;51.456;7.622;2023-07-16T06:01:59;18.90;99.90
15115;DHT22;7658;51.456;7.622;2023-07-16T06:04:25;19.00;99.90
15115;DHT22;7658;51.456;7.622;2023-07-16T06:06:51;19.10;99.90
15115;DHT22;7658;51.456;7.622;2023-07-16T06:09:17;19.10;99.90
15115;DHT22;7658;51.456;7.622;2023-07-16T06:11:46;19.00;99.90
15115;DHT22;7658;51.456;7.622;2023-07-16T06:14:13;19.10;99.90
15115;DHT22;7658;51.456;7.622;2023-07-16T06:16:38;19.20;99.90
15115;DHT22;7658;51.456;7.622;2023-07-16T06:19:04;19.30;99.90
15115;DHT22;7658;51.456;7.622;2023-07-16T06:21:30;19.40;99.90
15115;DHT22;7658;51.456;7.622;2023-07-16T06:23:56;19.60;99.90
15115;DHT22;7658;51.456;7.622;2023-07-16T06:26:21;19.60;99.90
15115;DHT22;7658;51.456;7.622;2023-07-16T06:28:47;19.40;99.90
15115;DHT22;7658;51.456;7.622;2023-07-16T06:31:19;19.10;99.90
15115;DHT22;7658;51.456;7.622;2023-07-16T06:33:45;18.90;99.90
15115;DHT22;7658;51.456;7.622;2023-07-16T06:36:14;19.00;99.90
15115;DHT22;7658;51.456;7.622;2023-07-16T06:38:40;19.10;99.90
15115;DHT22;7658;51.456;7.622;2023-07-16T06:41:06;19.20;99.90
15115;DHT22;7658;51.456;7.622;2023-07-16T06:43:32;19.20;99.90
15115;DHT22;7658;51.456;7.622;2023-07-16T06:45:58;19.40;99.90
15115;DHT22;7658;51.456;7.622;2023-07-16T06:48:24;19.40;99.90
15115;DHT22;7658;51.456;7.622;2023-07-16T06:50:50;19.30;99.90
15115;DHT22;7658;51.456;7.622;2023-07-16T06:53:16;19.30;99.90
15115;DHT22;7658;51.456;7.622;2023-07-16T06:55:42;19.40;99.90
15115;DHT22;7658;51.456;7.622;2023-07-16T06:58:13;19.50;99.90
15115;DHT22;7658;51.456;7.622;2023-07-16T07:00:39;19.30;99.90
15115;DHT22;7658;51.456;7.622;2023-07-16T07:03:05;19.40;99.90
15115;DHT22;7658;51.456;7.622;2023-07-16T07:05:30;19.30;99.90
15115;DHT22;7658;51.456;7.622;2023-07-16T07:07:56;19.20;99.90
15115;DHT22;7658;51.456;7.622;2023-07-16T07:10:22;19.30;99.90
15115;DHT22;7658;51.456;7.622;2023-07-16T07:12:48;19.40;99.90
15115;DHT22;7658;51.456;7.622;2023-07-16T07:15:14;19.40;99.90
15115;DHT22;7658;51.456;7.622;2023-07-16T07:17:39;19.60;99.90
15115;DHT22;7658;51.456;7.622;2023-07-16T07:20:06;19.70;99.90
15115;DHT22;7658;51.456;7.622;2023-07-16T07:22:32;19.70;99.90
15115;DHT22;7658;51.456;7.622;2023-07-16T07:24:58;19.60;99.90
15115;DHT22;7658;51.456;7.622;2023-07-16T07:27:23;19.60;99.90
15115;DHT22;7658;51.456;7.622;2023-07-16T07:29:49;19.60;99.90
15115;DHT22;7658;51.456;7.622;2023-07-16T07:32:19;19.60;99.90
15115;DHT22;7658;51.456;7.622;2023-07-16T07:34:45;19.70;99.90
15115;DHT22;7658;51.456;7.622;2023-07-16T07:37:11;19.70;99.90
15115;DHT22;7658;51.456;7.622;2023-07-16T07:39:37;19.70;99.90
15115;DHT22;7658;51.456;7.622;2023-07-16T07:42:03;19.90;99.90
15115;DHT22;7658;51.456;7.622;2023-07-16T07:44:29;20.00;99.90
15115;DHT22;7658;51.456;7.622;2023-07-16T07:46:55;20.00;99.90
15115;DHT22;7658;51.456;7.622;2023-07-16T07:49:20;20.10;99.90
15115;DHT22;7658;51.456;7.622;2023-07-16T07:51:46;20.20;99.90
15115;DHT22;7658;51.456;7.622;2023-07-16T07:54:15;20.10;99.90
15115;DHT22;7658;51.456;7.622;2023-07-16T07:56:40;20.10;99.90
15115;DHT22;7658;51.456;7.622;2023-07-16T07:59:06;20.00;99.90
15115;DHT22;7658;51.456;7.622;2023-07-16T08:01:32;20.10;99.90
15115;DHT22;7658;51.456;7.622;2023-07-16T08:03:58;20.20;99.90
15115;DHT22;7658;51.456;7.622;2023-07-16T08:06:23;20.30;99.90
15115;DHT22;7658;51.456;7.622;2023-07-16T08:08:49;20.30;99.90
15115;DHT22;7658;51.456;7.622;2023-07-16T08:11:15;20.30;99.90
15115;DHT22;7658;51.456;7.622;2023-07-16T08:13:40;20.50;99.90
15115;DHT22;7658;51.456;7.622;2023-07-16T08:16:06;20.60;99.90
15115;DHT22;7658;51.456;7.622;2023-07-16T08:18:32;20.60;99.90
15115;DHT22;7658;51.456;7.622;2023-07-16T08:20:58;20.50;99.90
15115;DHT22;7658;51.456;7.622;2023-07-16T08:23:23;20.50;99.90
15115;DHT22;7658;51.456;7.622;2023-07-16T08:25:49;20.50;99.90
15115;DHT22;7658;51.456;7.622;2023-07-16T08:28:16;20.50;99.90
15115;DHT22;7658;51.456;7.622;2023-07-16T08:30:41;20.50;99.90
15115;DHT22;7658;51.456;7.622;2023-07-16T08:33:07;20.70;99.90
15115;DHT22;7658;51.456;7.622;2023-07-16T08:35:33;21.00;99.90
15115;DHT22;7658;51.456;7.622;2023-07-16T08:38:00;21.60;99.90
15115;DHT22;7658;51.456;7.622;2023-07-16T08:40:26;22.60;99.90
15115;DHT22;7658;51.456;7.622;2023-07-16T08:42:53;23.20;99.90
15115;DHT22;7658;51.456;7.622;2023-07-16T08:45:21;23.30;99.90
15115;DHT22;7658;51.456;7.622;2023-07-16T08:47:48;23.40;99.90
15115;DHT22;7658;51.456;7.622;2023-07-16T08:50:14;23.10;99.90
15115;DHT22;7658;51.456;7.622;2023-07-16T08:52:41;23.00;99.90
15115;DHT22;7658;51.456;7.622;2023-07-16T08:55:08;22.60;99.90
15115;DHT22;7658;51.456;7.622;2023-07-16T08:57:35;22.80;99.90
15115;DHT22;7658;51.456;7.622;2023-07-16T09:00:01;22.80;99.90
15115;DHT22;7658;51.456;7.622;2023-07-16T09:02:27;22.10;99.90
15115;DHT22;7658;51.456;7.622;2023-07-16T09:04:53;21.80;99.90
15115;DHT22;7658;51.456;7.622;2023-07-16T09:07:20;22.10;99.90
15115;DHT22;7658;51.456;7.622;2023-07-16T09:09:56;22.70;99.90
15115;DHT22;7658;51.456;7.622;2023-07-16T09:12:24;22.60;99.90
15115;DHT22;7658;51.456;7.622;2023-07-16T09:14:50;22.60;99.90
15115;DHT22;7658;51.456;7.622;2023-07-16T09:17:24;22.40;99.90
15115;DHT22;7658;51.456;7.622;2023-07-16T09:19:53;22.50;99.90
15115;DHT22;7658;51.456;7.622;2023-07-16T09:22:19;22.70;99.90
15115;DHT22;7658;51.456;7.622;2023-07-16T09:24:46;23.00;99.90
15115;DHT22;7658;51.456;7.622;2023-07-16T09:27:12;22.60;99.90
15115;DHT22;7658;51.456;7.622;2023-07-16T09:29:39;22.50;99.90
15115;DHT22;7658;51.456;7.622;2023-07-16T09:32:05;22.30;99.90
15115;DHT22;7658;51.456;7.622;2023-07-16T09:34:31;22.40;99.90
15115;DHT22;7658;51.456;7.622;2023-07-16T09:36:58;22.70;99.90
15115;DHT22;7658;51.456;7.622;2023-07-16T09:39:25;22.90;99.90
15115;DHT22;7658;51.456;7.622;2023-07-16T09:41:51;22.70;99.90
15115;DHT22;7658;51.456;7.622;2023-07-16T09:44:18;22.90;99.90
15115;DHT22;7658;51.456;7.622;2023-07-16T09:46:45;23.10;99.90
15115;DHT22;7658;51.456;7.622;2023-07-16T09:49:11;23.10;99.90
15115;DHT22;7658;51.456;7.622;2023-07-16T09:51:38;23.00;99.90
15115;DHT22;7658;51.456;7.622;2023-07-16T09:54:05;23.00;99.90
15115;DHT22;7658;51.456;7.622;2023-07-16T09:56:47;23.40;99.90
15115;DHT22;7658;51.456;7.622;2023-07-16T09:59:16;23.60;99.90
15115;DHT22;7658;51.456;7.622;2023-07-16T10:01:42;23.60;99.90
15115;DHT22;7658;51.456;7.622;2023-07-16T10:04:15;23.60;99.90
15115;DHT22;7658;51.456;7.622;2023-07-16T10:06:55;23.50;99.90
15115;DHT22;7658;51.456;7.622;2023-07-16T10:09:41;23.40;99.90
15115;DHT22;7658;51.456;7.622;2023-07-16T10:14:43;23.60;99.90
15115;DHT22;7658;51.456;7.622;2023-07-16T10:17:17;23.20;99.90
15115;DHT22;7658;51.456;7.622;2023-07-16T10:19:49;23.10;99.90
15115;DHT22;7658;51.456;7.622;2023-07-16T10:22:15;22.60;99.90
15115;DHT22;7658;51.456;7.622;2023-07-16T10:24:41;22.70;99.90
15115;DHT22;7658;51.456;7.622;2023-07-16T10:27:07;23.20;99.90
15115;DHT22;7658;51.456;7.622;2023-07-16T10:29:33;23.60;99.90
15115;DHT22;7658;51.456;7.622;2023-07-16T10:31:58;24.00;99.90
15115;DHT22;7658;51.456;7.622;2023-07-16T10:34:24;24.10;99.90
15115;DHT22;7658;51.456;7.622;2023-07-16T10:36:52;24.30;99.90
15115;DHT22;7658;51.456;7.622;2023-07-16T10:39:17;24.00;99.90
15115;DHT22;7658;51.456;7.622;2023-07-16T10:41:43;23.90;99.90
15115;DHT22;7658;51.456;7.622;2023-07-16T10:44:10;23.70;99.90
15115;DHT22;7658;51.456;7.622;2023-07-16T10:46:37;23.70;99.90
15115;DHT22;7658;51.456;7.622;2023-07-16T10:49:03;23.40;99.90
15115;DHT22;7658;51.456;7.622;2023-07-16T10:51:29;23.20;99.90
15115;DHT22;7658;51.456;7.622;2023-07-16T10:53:56;23.20;99.90
15115;DHT22;7658;51.456;7.622;2023-07-16T10:56:22;23.20;99.90
15115;DHT22;7658;51.456;7.622;2023-07-16T10:58:48;23.20;99.90
15115;DHT22;7658;51.456;7.622;2023-07-16T11:01:14;23.40;99.90
15115;DHT22;7658;51.456;7.622;2023-07-16T11:03:40;23.60;99.90
15115;DHT22;7658;51.456;7.622;2023-07-16T11:06:08;23.60;99.90
15115;DHT22;7658;51.456;7.622;2023-07-16T11:08:34;23.30;99.90
15115;DHT22;7658;51.456;7.622;2023-07-16T11:10:59;23.20;99.90
15115;DHT22;7658;51.456;7.622;2023-07-16T11:13:31;23.10;99.90
15115;DHT22;7658;51.456;7.622;2023-07-16T11:15:57;23.30;99.90
15115;DHT22;7658;51.456;7.622;2023-07-16T11:18:23;23.80;99.90
15115;DHT22;7658;51.456;7.622;2023-07-16T11:20:53;24.20;99.90
15115;DHT22;7658;51.456;7.622;2023-07-16T11:23:19;24.40;99.90
15115;DHT22;7658;51.456;7.622;2023-07-16T11:25:49;24.20;99.90
15115;DHT22;7658;51.456;7.622;2023-07-16T11:28:15;24.10;99.90
15115;DHT22;7658;51.456;7.622;2023-07-16T11:30:41;23.70;99.90
15115;DHT22;7658;51.456;7.622;2023-07-16T11:33:11;23.40;99.90
15115;DHT22;7658;51.456;7.622;2023-07-16T11:35:37;23.30;99.90
15115;DHT22;7658;51.456;7.622;2023-07-16T11:38:07;23.20;99.90
15115;DHT22;7658;51.456;7.622;2023-07-16T11:40:36;23.10;99.90
15115;DHT22;7658;51.456;7.622;2023-07-16T11:43:11;23.10;99.90
15115;DHT22;7658;51.456;7.622;2023-07-16T11:45:38;23.10;99.90
15115;DHT22;7658;51.456;7.622;2023-07-16T11:48:04;23.00;99.90
15115;DHT22;7658;51.456;7.622;2023-07-16T11:50:30;23.10;99.90
15115;DHT22;7658;51.456;7.622;2023-07-16T11:53:00;23.10;99.90
15115;DHT22;7658;51.456;7.622;2023-07-16T11:55:27;22.90;99.90
15115;DHT22;7658;51.456;7.622;2023-07-16T11:57:53;22.90;99.90
15115;DHT22;7658;51.456;7.622;2023-07-16T12:00:19;22.90;99.90
15115;DHT22;7658;51.456;7.622;2023-07-16T12:02:45;23.00;99.90
15115;DHT22;7658;51.456;7.622;2023-07-16T12:05:20;23.10;99.90
15115;DHT22;7658;51.456;7.622;2023-07-16T12:07:46;23.40;99.90
15115;DHT22;7658;51.456;7.622;2023-07-16T12:10:12;23.50;99.90
15115;DHT22;7658;51.456;7.622;2023-07-16T12:12:37;23.40;99.90
15115;DHT22;7658;51.456;7.622;2023-07-16T12:15:04;23.40;99.90
15115;DHT22;7658;51.456;7.622;2023-07-16T12:17:30;23.30;99.90
15115;DHT22;7658;51.456;7.622;2023-07-16T12:19:56;23.20;99.90
15115;DHT22;7658;51.456;7.622;2023-07-16T12:22:23;23.30;99.90
15115;DHT22;7658;51.456;7.622;2023-07-16T12:24:49;23.40;99.90
15115;DHT22;7658;51.456;7.622;2023-07-16T12:27:15;23.60;99.90
15115;DHT22;7658;51.456;7.622;2023-07-16T12:29:42;23.60;99.90
15115;DHT22;7658;51.456;7.622;2023-07-16T12:32:08;23.60;99.90
15115;DHT22;7658;51.456;7.622;2023-07-16T12:34:34;23.40;99.90
15115;DHT22;7658;51.456;7.622;2023-07-16T12:37:00;23.40;99.90
15115;DHT22;7658;51.456;7.622;2023-07-16T12:39:26;23.80;99.90
15115;DHT22;7658;51.456;7.622;2023-07-16T12:41:51;23.80;99.90
15115;DHT22;7658;51.456;7.622;2023-07-16T12:44:17;23.70;99.90
15115;DHT22;7658;51.456;7.622;2023-07-16T12:46:43;23.70;99.90
15115;DHT22;7658;51.456;7.622;2023-07-16T12:49:08;23.90;99.90
15115;DHT22;7658;51.456;7.622;2023-07-16T12:51:34;24.00;99.90
15115;DHT22;7658;51.456;7.622;2023-07-16T12:54:00;24.20;99.90
15115;DHT22;7658;51.456;7.622;2023-07-16T12:56:26;24.40;99.90
15115;DHT22;7658;51.456;7.622;2023-07-16T12:58:52;24.30;99.90
15115;DHT22;7658;51.456;7.622;2023-07-16T13:01:18;24.30;99.90
15115;DHT22;7658;51.456;7.622;2023-07-16T13:03:44;24.20;99.90
15115;DHT22;7658;51.456;7.622;2023-07-16T13:06:10;24.30;99.90
15115;DHT22;7658;51.456;7.622;2023-07-16T13:08:37;24.50;99.90
15115;DHT22;7658;51.456;7.622;2023-07-16T13:11:03;24.80;99.90
15115;DHT22;7658;51.456;7.622;2023-07-16T13:13:28;25.10;99.90
15115;DHT22;7658;51.456;7.622;2023-07-16T13:15:55;25.10;99.90
15115;DHT22;7658;51.456;7.622;2023-07-16T13:18:21;24.70;99.90
15115;DHT22;7658;51.456;7.622;2023-07-16T13:20:46;24.20;99.90
15115;DHT22;7658;51.456;7.622;2023-07-16T13:23:12;24.00;99.90
15115;DHT22;7658;51.456;7.622;2023-07-16T13:25:38;23.70;99.90
15115;DHT22;7658;51.456;7.622;2023-07-16T13:28:07;23.60;99.90
15115;DHT22;7658;51.456;7.622;2023-07-16T13:30:33;24.00;99.90
15115;DHT22;7658;51.456;7.622;2023-07-16T13:32:59;24.50;99.90
15115;DHT22;7658;51.456;7.622;2023-07-16T13:35:26;24.70;99.90
15115;DHT22;7658;51.456;7.622;2023-07-16T13:37:52;24.50;99.90
15115;DHT22;7658;51.456;7.622;2023-07-16T13:40:18;24.40;99.90
15115;DHT22;7658;51.456;7.622;2023-07-16T13:42:47;24.30;99.90
15115;DHT22;7658;51.456;7.622;2023-07-16T13:45:14;24.80;99.90
15115;DHT22;7658;51.456;7.622;2023-07-16T13:47:40;25.40;99.90
15115;DHT22;7658;51.456;7.622;2023-07-16T13:50:06;25.60;99.90
15115;DHT22;7658;51.456;7.622;2023-07-16T13:52:32;25.60;99.90
15115;DHT22;7658;51.456;7.622;2023-07-16T13:54:58;25.30;99.90
15115;DHT22;7658;51.456;7.622;2023-07-16T13:57:23;24.80;99.90
15115;DHT22;7658;51.456;7.622;2023-07-16T13:59:49;24.70;99.90
15115;DHT22;7658;51.456;7.622;2023-07-16T14:02:15;24.60;99.90
15115;DHT22;7658;51.456;7.622;2023-07-16T14:04:41;24.60;99.90
15115;DHT22;7658;51.456;7.622;2023-07-16T14:07:06;24.20;99.90
15115;DHT22;7658;51.456;7.622;2023-07-16T14:09:32;24.00;99.90
15115;DHT22;7658;51.456;7.622;2023-07-16T14:11:58;23.90;99.90
15115;DHT22;7658;51.456;7.622;2023-07-16T14:14:24;23.90;99.90
15115;DHT22;7658;51.456;7.622;2023-07-16T14:16:50;23.80;99.90
15115;DHT22;7658;51.456;7.622;2023-07-16T14:19:15;24.00;99.90
15115;DHT22;7658;51.456;7.622;2023-07-16T14:21:41;24.50;99.90
15115;DHT22;7658;51.456;7.622;2023-07-16T14:24:07;24.80;99.90
15115;DHT22;7658;51.456;7.622;2023-07-16T14:26:33;24.60;99.90
15115;DHT22;7658;51.456;7.622;2023-07-16T14:28:59;24.40;99.90
15115;DHT22;7658;51.456;7.622;2023-07-16T14:31:25;24.20;99.90
15115;DHT22;7658;51.456;7.622;2023-07-16T14:33:51;23.90;99.90
15115;DHT22;7658;51.456;7.622;2023-07-16T14:36:17;23.70;99.90
15115;DHT22;7658;51.456;7.622;2023-07-16T14:38:43;23.60;99.90
15115;DHT22;7658;51.456;7.622;2023-07-16T14:41:09;23.80;99.90
15115;DHT22;7658;51.456;7.622;2023-07-16T14:43:36;23.90;99.90
15115;DHT22;7658;51.456;7.622;2023-07-16T14:46:02;23.80;99.90
15115;DHT22;7658;51.456;7.622;2023-07-16T14:48:28;23.60;99.90
15115;DHT22;7658;51.456;7.622;2023-07-16T14:50:54;24.10;99.90
15115;DHT22;7658;51.456;7.622;2023-07-16T14:53:20;24.30;99.90
15115;DHT22;7658;51.456;7.622;2023-07-16T14:55:52;24.20;99.90
15115;DHT22;7658;51.456;7.622;2023-07-16T14:58:19;23.90;99.90
15115;DHT22;7658;51.456;7.622;2023-07-16T15:00:46;23.70;99.90
15115;DHT22;7658;51.456;7.622;2023-07-16T15:03:11;23.60;99.90
15115;DHT22;7658;51.456;7.622;2023-07-16T15:05:37;24.00;99.90
15115;DHT22;7658;51.456;7.622;2023-07-16T15:08:04;24.50;99.90
15115;DHT22;7658;51.456;7.622;2023-07-16T15:10:30;24.60;99.90
15115;DHT22;7658;51.456;7.622;2023-07-16T15:12:56;24.50;99.90
15115;DHT22;7658;51.456;7.622;2023-07-16T15:15:22;24.30;99.90
15115;DHT22;7658;51.456;7.622;2023-07-16T15:17:48;24.10;99.90
15115;DHT22;7658;51.456;7.622;2023-07-16T15:20:14;24.10;99.90
15115;DHT22;7658;51.456;7.622;2023-07-16T15:22:39;23.90;99.90
15115;DHT22;7658;51.456;7.622;2023-07-16T15:25:06;24.00;99.90
15115;DHT22;7658;51.456;7.622;2023-07-16T15:27:32;24.40;99.90
15115;DHT22;7658;51.456;7.622;2023-07-16T15:29:58;25.00;99.90
15115;DHT22;7658;51.456;7.622;2023-07-16T15:32:24;25.30;99.90
15115;DHT22;7658;51.456;7.622;2023-07-16T15:34:49;25.60;99.90
15115;DHT22;7658;51.456;7.622;2023-07-16T15:37:15;25.70;99.90
15115;DHT22;7658;51.456;7.622;2023-07-16T15:39:41;25.60;99.90
15115;DHT22;7658;51.456;7.622;2023-07-16T15:42:07;25.40;99.90
15115;DHT22;7658;51.456;7.622;2023-07-16T15:44:33;25.30;99.90
15115;DHT22;7658;51.456;7.622;2023-07-16T15:46:58;25.00;99.90
15115;DHT22;7658;51.456;7.622;2023-07-16T15:49:25;25.00;99.90
15115;DHT22;7658;51.456;7.622;2023-07-16T15:51:51;25.10;99.90
15115;DHT22;7658;51.456;7.622;2023-07-16T15:54:17;24.80;99.90